Rodrygo Fernandes

Olheiro - Cruzeiro
4 Abr 2027
Domingo
Processo

Personalidade

Adaptabilidade (20) Ambição (19) Controvérsia (14) Lealdade (17) Pressão (1) Profissionalismo (19) Espírito Esportivo (3) Temperamento (4)

Perfil

Estilo de Treinamento Democrático
Licença Continental B
Determinação 6
Gestão de Pessoas 8
Motivação 6
Disciplina 9
Satisfação no Trabalho
50%
Fadiga
0%
Função Olheiro
Salário 45.0K p/s
Contrato 14.03.2030

Desempenho

Comportamento Normal
Eficácia do Treinamento
24%
Desenvolvimento do Jogador
65%
Prevenção de Lesões
50%
Implementação Tática
45%

Eventos Recentes

Avaliou um jogador agora
Participou de uma reunião de recrutamento agora
Avaliou um jogador agora
Avaliou um jogador 7d atrás
Avaliou um jogador 7d atrás
Avaliou um jogador 7d atrás
Avaliou um jogador 7d atrás
Avaliou um jogador 7d atrás

Monitorando agora

212
Jogador Clube Status Habilidade Confiança Observado Última observação Último voto
Stav Toriel Hapoel Tel Aviv Ativo 149 / 120 40% 3 03.04.2027 -
Bryan González Guadalajara Ativo 130 / 139 40% 2 03.04.2027 -
Gustavo Silva Vitoria Guimaraes Ativo 129 / 123 40% 4 31.03.2027 -
Jalen Blesa Rio Ave Ativo 126 / 113 40% 5 31.03.2027 -
Brayan León Mamelodi Sundowns Ativo 109 / 108 40% 2 30.03.2027 -
Raúl Alcaina Penafiel Ativo 91 / 99 40% 1 30.03.2027 -
Oleksandr Nazarenko Polissia Ativo 123 / 119 40% 2 29.03.2027 -
Gonzalo Plata Dinamo Moscow Ativo 119 / 131 40% 1 29.03.2027 -
Nazar Voloshyn Dynamo Kyiv Ativo 118 / 133 40% 1 28.03.2027 -
Erik Lira Cruz Azul Ativo 135 / 131 40% 1 28.03.2027 -
Efraín Álvarez Guadalajara Ativo 113 / 136 40% 5 27.03.2027 -
Evidence Makgopa Orlando Pirates Ativo 98 / 105 40% 3 26.03.2027 -
Luca Orellano Monterrey Ativo 144 / 141 40% 1 26.03.2027 -
Camilo Durán Bloemfontein Celtic Ativo 105 / 120 40% 3 25.03.2027 -
Dylan Nandín Arouca Ativo 103 / 107 40% 4 25.03.2027 -
Figueiredo Alverca Ativo 129 / 126 40% 8 24.03.2027 -
Nuno Moreira Vasco da Gama Ativo 118 / 128 40% 1 24.03.2027 -
Luís Guilherme Sporting CP Ativo 134 / 129 40% 2 23.03.2027 -
Serginho Al Wasl Ativo 112 / 129 40% 2 23.03.2027 -
Omar Campos Cruz Azul Ativo 116 / 124 40% 1 23.03.2027 -
Felipe Augusto Zenit Ativo 130 / 126 40% 1 23.03.2027 -
Ozziel Herrera Tigres Ativo 136 / 124 40% 1 22.03.2027 -
Marquinhos Spartak Moscow Ativo 115 / 132 40% 1 22.03.2027 -
Beni Mukendi Vitoria Guimaraes Ativo 133 / 121 40% 2 20.03.2027 -
Jordan Holsgrove Estoril Praia Ativo 114 / 122 40% 1 20.03.2027 -
Facundo Pellistri Panathinaikos Ativo 134 / 136 40% 1 20.03.2027 -
Tunde AVS Ativo 103 / 119 40% 1 20.03.2027 -
Luccas Paraízo Leixões Ativo 88 / 105 40% 2 18.03.2027 -
Facundo Torres Shakhtar Ativo 139 / 138 40% 2 18.03.2027 -
Ali Soliman Masr El Makasa Ativo 131 / 121 40% 1 16.03.2027 -
Terry Devlin Portsmouth Ativo 104 / 120 40% 1 16.03.2027 -
Richard Ledezma Guadalajara Ativo 129 / 128 40% 2 15.03.2027 -
Santi García Gil Vicente Ativo 133 / 133 40% 1 15.03.2027 -
Francis Amuzu Grêmio Ativo 145 / 125 40% 1 14.03.2027 -
Ilias Sebaoui Sint-Truiden Ativo 133 / 130 40% 1 12.03.2027 -
Haissem Hassan Bloemfontein Celtic Ativo 151 / 132 40% 1 11.03.2027 -
Petar Stanić Ludogorets Ativo 148 / 139 40% 1 09.03.2027 -
Kaveh Mohammadi Padideh Ativo 117 / 124 40% 1 09.03.2027 -
Cian Ashford Cardiff City Ativo 129 / 128 40% 3 06.03.2027 -
Artem Slesar Zorya Ativo 100 / 111 40% 1 06.03.2027 -
Afimico Pululu Al-Hazem Ativo 132 / 124 40% 3 05.03.2027 -
André Lacximicant Estoril Praia Ativo 97 / 113 40% 1 05.03.2027 -
Aidomo Emakhu Oxford United Ativo 124 / 117 40% 1 04.03.2027 -
Sam Greenwood Bristol City Ativo 137 / 122 40% 1 04.03.2027 -
Vinícius Lopes Santa Clara Ativo 134 / 118 40% 7 03.03.2027 -
Etiosa Ighodaro Kaizer Chiefs Ativo 97 / 114 40% 2 03.03.2027 -
Sergey Pinyaev Lokomotiv Moscow Ativo 119 / 127 40% 1 03.03.2027 -
Tristan Degreef Anderlecht Ativo 140 / 133 40% 1 03.03.2027 -
Luis Quintero Torreense Ativo 132 / 119 40% 1 03.03.2027 -
Dom Ballard Leyton Orient Ativo 128 / 127 40% 3 01.03.2027 -
Toni Tamarit Alverca Ativo 96 / 127 40% 3 01.03.2027 -
Reyes Cleary Barnsley Ativo 124 / 113 40% 1 01.03.2027 -
Chiquinho Alverca Ativo 116 / 127 40% 2 27.02.2027 -
Timothy Kompany Mouscron Ativo 116 / 126 40% 1 27.02.2027 -
Marcelo Allende Mamelodi Sundowns Ativo 120 / 130 40% 1 26.02.2027 -
Kauã Elias Shakhtar Ativo 129 / 140 40% 1 26.02.2027 -
Jorge Meireles AVS Ativo 97 / 119 40% 1 25.02.2027 -
Martín Tejón Maritimo Ativo 121 / 125 40% 1 24.02.2027 -
Danylo Sikan Anderlecht Ativo 125 / 132 40% 2 23.02.2027 -
José Manuel López Palmeiras Ativo 138 / 137 40% 3 22.02.2027 -
Giorgos Koutsias Famalicao Ativo 108 / 127 40% 1 22.02.2027 -
Lucas Duarte Felgueiras Ativo 105 / 107 40% 1 19.02.2027 -
Lorent Tolaj Plymouth Argyle Ativo 134 / 123 40% 1 18.02.2027 -
Josh Coburn Millwall Ativo 135 / 116 40% 3 17.02.2027 -
Henrique Araújo Casa Pia Ativo 114 / 113 40% 4 15.02.2027 -
Majid Dejagah Gostaresh Foulad Ativo 142 / 133 40% 2 15.02.2027 -
Itumeleng Tau Ajax Cape Town Ativo 99 / 114 40% 3 13.02.2027 -
Niall Ennis Blackpool Ativo 130 / 112 40% 1 13.02.2027 -
Yanis Begraoui Estoril Praia Ativo 133 / 139 40% 4 11.02.2027 -
Andreas Schjelderup Benfica Ativo 151 / 140 40% 2 11.02.2027 -
Henry Mosquera Bragantino Ativo 127 / 126 40% 2 09.02.2027 -
Alfonso Trezza Arouca Ativo 110 / 128 40% 2 08.02.2027 -
Duk Atlas Ativo 115 / 116 40% 1 08.02.2027 -
Bryan Limbombe Maritimo Ativo 120 / 103 40% 3 05.02.2027 -
Wandile Duba Bidvest Wits Ativo 99 / 100 40% 1 05.02.2027 -
Braian Aguirre Internacional Ativo 120 / 131 40% 1 04.02.2027 -
Jhon Jhon Zenit Ativo 121 / 135 40% 1 04.02.2027 -
Tamble Monteiro Rio Ave Ativo 131 / 117 40% 2 02.02.2027 -
Cesar Corona Veracruz Ativo 153 / 130 40% 2 02.02.2027 -
Alex Robertson Cardiff City Ativo 108 / 130 40% 1 02.02.2027 -
Rodrigo Pinheiro Famalicao Ativo 135 / 127 40% 1 02.02.2027 -
Michy Fellaini KV Oostende Ativo 119 / 142 40% 1 29.01.2027 -
Bruno Gomes Internacional Ativo 125 / 131 40% 1 29.01.2027 -
Jorge Aguirre Torreense Ativo 104 / 96 40% 1 26.01.2027 -
Khayon Edwards Estoril Praia Ativo 97 / 112 40% 1 25.01.2027 -
Tamerlan Musaev CSKA Moscow Ativo 130 / 115 40% 1 19.01.2027 -
Miguel Falé Pacos de Ferreira Ativo 111 / 100 40% 1 18.01.2027 -
Ianis Stoica Estrela da Amadora Ativo 121 / 109 40% 1 13.01.2027 -
Gabriel Barbosa Farense Ativo 103 / 104 40% 2 12.01.2027 -
José Bica Leixões Ativo 118 / 98 40% 1 12.01.2027 -
Nicolò Tresoldi Club Brugge Ativo 140 / 136 40% 1 09.01.2027 -
Korede Osundina Casa Pia Ativo 131 / 114 40% 2 08.01.2027 -
Ashkan Shojaei Siah Jamegan Ativo 115 / 127 40% 1 07.01.2027 -
Rafik Guitane Estoril Praia Ativo 118 / 137 40% 1 05.01.2027 -
Chico Kim Mirassol Ativo 118 / 120 51% 1 21.12.2026 -
Majid Dejagah Gostaresh Foulad Perdido 137 / 134 40% 2 14.12.2026 -
Finn Azaz Southampton Ativo 121 / 125 40% 1 14.12.2026 -
Yuri Alberto Corinthians Perdido 146 / 137 51% 1 01.12.2026 -
Luís Guilherme Sporting CP Perdido 131 / 123 40% 3 29.11.2026 -
Michy Fellaini KV Oostende Perdido 117 / 131 40% 3 29.11.2026 -
Iker Benito Queretaro Perdido 116 / 126 40% 2 28.11.2026 -
Alejandro Piedrahita Deportivo Pereira Ativo 131 / 118 40% 2 28.11.2026 -
Fotis Ioannidis Sporting CP Ativo 122 / 137 40% 1 26.11.2026 -
Jorge Pascual Granada Rejeitado 134 / 129 40% 1 25.11.2026 Mais informações
Florián Monzón Atlas Perdido 127 / 123 40% 1 25.11.2026 -
Sébastien Durand Tours Ativo 152 / 132 40% 1 20.11.2026 -
Sorriso Famalicao Ativo 124 / 125 40% 1 19.11.2026 -
Efraín Álvarez Guadalajara Perdido 128 / 127 40% 1 18.11.2026 -
Rok Zajc NK Domzale Perdido 140 / 116 40% 1 16.11.2026 -
Zé Leite Oliveirense Ativo 116 / 119 40% 1 16.11.2026 -
Lee Hyun-Ju Arouca Ativo 109 / 122 40% 2 15.11.2026 -
Tony Strata Vitoria Guimaraes Ativo 105 / 124 40% 1 15.11.2026 -
Kélian Nsona Casa Pia Perdido 130 / 119 40% 1 12.11.2026 -
Iván Fresneda Sporting CP Ativo 117 / 138 40% 1 11.11.2026 -
Alan Velasco Boca Juniors Ativo 131 / 125 40% 1 11.11.2026 -
Óscar Aranda Espanyol Ativo 128 / 132 40% 3 10.11.2026 -
Cesar Corona Veracruz Perdido 139 / 139 40% 1 10.11.2026 -
João Costa Santa Clara Ativo 109 / 110 40% 1 10.11.2026 -
Matheus Araújo Ceará Ativo 108 / 119 40% 1 10.11.2026 -
Maroan Sannadi Athletic Bilbao Ativo 147 / 136 40% 1 06.11.2026 -
Pedro Lima Sporting CP Ativo 101 / 123 40% 1 04.11.2026 -
Marcos Paulo Juventude Ativo 123 / 121 40% 1 03.11.2026 -
Louie Barry Sheffield Wednesday Ativo 111 / 130 40% 1 01.11.2026 -
Gustavo Puerta Racing Santander Ativo 123 / 144 40% 1 28.10.2026 -
Oumar Camara Vitoria Guimaraes Rejeitado 105 / 135 40% 4 23.10.2026 Rejeitar
Haissem Hassan Bloemfontein Celtic Perdido 133 / 140 40% 2 21.10.2026 -
Alexis Vega Toluca Ativo 154 / 137 40% 1 21.10.2026 -
Akinkunmi Amoo Ismaily Ativo 122 / 120 40% 2 20.10.2026 -
Thapelo Maseko FC Copenhagen Ativo 114 / 123 40% 1 20.10.2026 -
Mario Dorgeles Braga Ativo 133 / 127 40% 2 17.10.2026 -
Óscar Plano Leganés Ativo 139 / 136 40% 1 16.10.2026 -
Mohamed Salah Trabzonspor Ativo 187 / 178 40% 2 14.10.2026 -
Jonathan Calleri Sport Recife Ativo 137 / 136 40% 2 14.10.2026 -
Vinicinho Bragantino Ativo 129 / 123 40% 2 13.10.2026 -
William Gomes Porto Ativo 130 / 149 40% 3 13.10.2026 -
Manu Pozo Torreense Ativo 102 / 124 40% 1 12.10.2026 -
Brian Gutiérrez Guadalajara Rejeitado 118 / 127 40% 1 11.10.2026 Mais informações
Nélson Oliveira Vitoria Guimaraes Ativo 109 / 112 40% 1 11.10.2026 -
Arthur Cabral Botafogo Ativo 119 / 121 40% 1 11.10.2026 -
Antoine Griezmann Orlando City Ativo 140 / 154 40% 2 10.10.2026 -
Martín Ojeda Orlando City Ativo 134 / 132 40% 1 07.10.2026 -
Memphis Depay Corinthians Ativo 142 / 140 40% 1 06.10.2026 -
Talles Magno New York City Ativo 109 / 126 40% 2 04.10.2026 -
Brenner Vasco da Gama Ativo 127 / 127 40% 1 04.10.2026 -
Tadeo Allende Inter Miami CF Ativo 122 / 114 40% 1 04.10.2026 -
Henry Martín Club America Ativo 156 / 144 40% 2 01.10.2026 -
Percy Erasmus SuperSport United Ativo 144 / 120 40% 3 30.09.2026 -
Claudio Spinelli Vasco da Gama Ativo 120 / 123 40% 1 30.09.2026 -
Jalal Abdullai Molde Ativo 129 / 116 40% 1 30.09.2026 -
Angelo Gattermayer Wolfsberger AC Ativo 131 / 119 40% 2 29.09.2026 -
Joe Hodge Tondela Ativo 105 / 116 40% 1 29.09.2026 -
Michael Barrios Once Caldas Ativo 133 / 121 40% 1 26.09.2026 -
Denis Bouanga Los Angeles Football Club Ativo 141 / 141 40% 1 24.09.2026 -
Iwan Morgan Grimsby Town Ativo 104 / 116 40% 1 24.09.2026 -
Karem Zoabi Torreense Ativo 101 / 109 40% 1 24.09.2026 -
Jack McGlynn Houston Dynamo Ativo 110 / 125 40% 1 23.09.2026 -
Diogo Spencer Alverca Ativo 134 / 128 40% 1 23.09.2026 -
Fidel Ambríz Monterrey Ativo 114 / 128 40% 1 20.09.2026 -
Alan KAA Gent Ativo 148 / 124 40% 1 20.09.2026 -
Joaquín Pereyra Minnesota United FC Ativo 109 / 128 40% 1 20.09.2026 -
Armindo Sieb Los Angeles Football Club Ativo 118 / 115 40% 1 18.09.2026 -
Deniz Gül Porto Ativo 115 / 132 40% 2 17.09.2026 -
Martin Braithwaite Grêmio Ativo 144 / 125 40% 2 17.09.2026 -
Peter Shalulile Mamelodi Sundowns Ativo 123 / 123 40% 1 16.09.2026 -
Leonardo Castro Millonarios Ativo 133 / 120 40% 1 16.09.2026 -
Alan Lescano Argentinos Juniors Ativo 125 / 128 40% 1 15.09.2026 -
Alex Luna Instituto Ativo 134 / 125 40% 1 15.09.2026 -
Espen van Ee Arouca Ativo 100 / 119 40% 1 14.09.2026 -
Joelson Fernandes Gil Vicente Ativo 130 / 128 40% 1 14.09.2026 -
Jefry Zapata Once Caldas Ativo 106 / 117 40% 1 13.09.2026 -
Rodrigo Castillo Fluminense Ativo 123 / 122 40% 1 13.09.2026 -
José Hurtado Bragantino Ativo 129 / 121 40% 1 10.09.2026 -
Pedro Flamengo Ativo 130 / 141 40% 1 09.09.2026 -
Alexander Aravena Portland Timbers Ativo 105 / 120 40% 1 08.09.2026 -
Yoshan Valois Lanús Ativo 112 / 121 40% 1 08.09.2026 -
Paulinho Palmeiras Ativo 145 / 136 40% 2 06.09.2026 -
Taichi Fukui Arouca Ativo 103 / 123 40% 1 05.09.2026 -
Matheus Dias Nacional Ativo 118 / 114 40% 1 05.09.2026 -
Rafa Benfica Ativo 163 / 137 40% 1 05.09.2026 -
Ángel Correa River Plate Ativo 150 / 145 40% 3 03.09.2026 -
Gabriel Silva Braga Ativo 128 / 121 40% 1 02.09.2026 -
Juan Ignacio Nardoni Grêmio Ativo 121 / 133 40% 1 01.09.2026 -
João Marques Braga Ativo 116 / 125 40% 1 31.08.2026 -
Andrés Gómez Vasco da Gama Ativo 130 / 129 40% 1 31.08.2026 -
Ferreirinha Sport Recife Ativo 132 / 130 40% 2 29.08.2026 -
Vitinho Internacional Ativo 129 / 125 40% 1 29.08.2026 -
Kévin Denkey FC Cincinnati Ativo 114 / 124 40% 1 28.08.2026 -
Sam Surridge Nashville SC Ativo 150 / 124 40% 1 28.08.2026 -
Dilan Godoy Vélez Ativo 114 / 119 40% 1 28.08.2026 -
Juan Muñoz Leiria Ativo 103 / 123 40% 2 26.08.2026 -
Lucas Moura Sport Recife Ativo 149 / 139 40% 1 25.08.2026 -
Sydney van Hooijdonk Estrela da Amadora Ativo 93 / 117 40% 1 25.08.2026 -
Gabriel Veron Porto Ativo 122 / 119 40% 2 23.08.2026 -
Vitor Roque Palmeiras Ativo 139 / 140 40% 1 22.08.2026 -
Pau Víctor Braga Ativo 136 / 129 40% 1 22.08.2026 -
Héctor Hernández Gil Vicente Ativo 138 / 126 40% 1 18.08.2026 -
Joaquín Correa Estudiantes Ativo 136 / 132 40% 1 18.08.2026 -
Gustavo Torres Atletico Nacional Ativo 110 / 120 40% 1 17.08.2026 -
Rossi Young Boys Ativo 135 / 118 40% 1 17.08.2026 -
Fran Navarro Braga Ativo 120 / 128 40% 1 16.08.2026 -
Ricardo Horta Braga Ativo 129 / 141 40% 2 15.08.2026 -
Luciano Sport Recife Ativo 141 / 123 40% 1 15.08.2026 -
Mathias De Amorim Famalicao Ativo 108 / 130 40% 2 13.08.2026 -
Mohammed Bouldini Académico de Viseu Ativo 109 / 119 40% 1 13.08.2026 -
Danny Welbeck Chelsea Ativo 135 / 143 40% 1 13.08.2026 -
Gianluca Prestianni Benfica Ativo 123 / 131 40% 2 11.08.2026 -
Cauan Barros Vasco da Gama Ativo 140 / 133 40% 1 09.08.2026 -
Martim Fernandes Porto Ativo 151 / 133 40% 1 08.08.2026 -
Exequiel Zeballos Boca Juniors Ativo 120 / 136 40% 2 07.08.2026 -
Neymar Santos Ativo 159 / 150 40% 1 04.08.2026 -
Arthur Caike Anderlecht Ativo 104 / 116 40% 1 04.08.2026 -
Jonas Wind Braga Ativo 129 / 126 40% 1 01.08.2026 -